createdAt,value
2023-05-08T00:00:53.655Z,9.76
2023-05-08T00:01:53.654Z,9.74
2023-05-08T00:02:53.750Z,9.74
2023-05-08T00:03:53.966Z,9.73
2023-05-08T00:04:53.649Z,9.66
2023-05-08T00:05:53.591Z,9.65
2023-05-08T00:06:53.590Z,9.65
2023-05-08T00:07:53.584Z,9.62
2023-05-08T00:08:53.549Z,9.65
2023-05-08T00:09:53.530Z,9.64
2023-05-08T00:10:53.575Z,9.65
2023-05-08T00:11:53.542Z,9.65
2023-05-08T00:12:53.561Z,9.66
2023-05-08T00:13:53.505Z,9.65
2023-05-08T00:14:53.482Z,9.64
2023-05-08T00:15:53.487Z,9.65
2023-05-08T00:16:53.509Z,9.68
2023-05-08T00:17:53.466Z,9.68
2023-05-08T00:18:53.448Z,9.65
2023-05-08T00:19:53.438Z,9.68
2023-05-08T00:20:53.444Z,9.64
2023-05-08T00:21:53.414Z,9.62
2023-05-08T00:22:53.419Z,9.64
2023-05-08T00:23:53.394Z,9.65
2023-05-08T00:24:53.426Z,9.64
2023-05-08T00:25:53.409Z,9.64
2023-05-08T00:26:53.383Z,9.62
2023-05-08T00:27:53.366Z,9.64
2023-05-08T00:28:53.367Z,9.61
2023-05-08T00:29:53.363Z,9.62
2023-05-08T00:30:53.323Z,9.62
2023-05-08T00:31:53.378Z,9.59
2023-05-08T00:32:53.458Z,9.62
2023-05-08T00:33:53.291Z,9.59
2023-05-08T00:34:53.311Z,9.61
2023-05-08T00:35:53.300Z,9.58
2023-05-08T00:36:53.260Z,9.61
2023-05-08T00:37:53.248Z,9.58
2023-05-08T00:38:53.257Z,9.55
2023-05-08T00:39:53.232Z,9.51
2023-05-08T00:40:53.214Z,9.51
2023-05-08T00:41:53.216Z,9.50
2023-05-08T00:42:53.193Z,9.51
2023-05-08T00:43:53.205Z,9.54
2023-05-08T00:44:53.176Z,9.48
2023-05-08T00:45:53.187Z,9.43
2023-05-08T00:46:53.161Z,9.44
2023-05-08T00:47:53.210Z,9.43
2023-05-08T00:48:53.143Z,9.43
2023-05-08T00:49:53.119Z,9.44
2023-05-08T00:50:53.116Z,9.44
2023-05-08T00:51:53.096Z,9.46
2023-05-08T00:52:53.106Z,9.41
2023-05-08T00:53:53.084Z,9.43
2023-05-08T00:54:53.066Z,9.43
2023-05-08T00:55:53.053Z,9.47
2023-05-08T00:56:53.053Z,9.44
2023-05-08T00:57:53.044Z,9.43
2023-05-08T00:58:53.030Z,9.44
2023-05-08T00:59:53.012Z,9.46
2023-05-08T01:00:53.008Z,9.41
2023-05-08T01:01:53.095Z,9.43
2023-05-08T01:02:53.058Z,9.43
2023-05-08T01:03:53.081Z,9.41
2023-05-08T01:04:52.961Z,9.40
2023-05-08T01:05:52.960Z,9.39
2023-05-08T01:06:52.951Z,9.40
2023-05-08T01:07:52.950Z,9.34
2023-05-08T01:08:52.936Z,9.31
2023-05-08T01:09:52.900Z,9.31
2023-05-08T01:10:52.906Z,9.32
2023-05-08T01:11:52.903Z,9.32
2023-05-08T01:12:52.898Z,9.28
2023-05-08T01:13:52.863Z,9.29
2023-05-08T01:14:52.870Z,9.26
2023-05-08T01:15:53.047Z,9.26
2023-05-08T01:16:53.178Z,9.26
2023-05-08T01:17:52.922Z,9.25
2023-05-08T01:18:52.813Z,9.26
2023-05-08T01:19:52.805Z,9.25
2023-05-08T01:20:52.889Z,9.25
2023-05-08T01:21:53.526Z,9.25
2023-05-08T01:22:52.775Z,9.23
2023-05-08T01:23:52.771Z,9.21
2023-05-08T01:24:52.753Z,9.22
2023-05-08T01:25:52.758Z,9.18
2023-05-08T01:26:53.542Z,9.16
2023-05-08T01:27:52.721Z,9.11
2023-05-08T01:28:52.694Z,9.10
2023-05-08T01:29:52.745Z,9.10
2023-05-08T01:30:52.719Z,9.08
2023-05-08T01:31:52.673Z,9.04
2023-05-08T01:32:52.738Z,9.00
2023-05-08T01:33:52.704Z,9.00
2023-05-08T01:34:52.655Z,8.99
2023-05-08T01:35:52.677Z,8.94
2023-05-08T01:36:52.619Z,8.94
2023-05-08T01:37:52.624Z,8.89
2023-05-08T01:38:52.634Z,8.89
2023-05-08T01:39:52.619Z,8.89
2023-05-08T01:40:52.574Z,8.87
2023-05-08T01:41:52.574Z,8.88
2023-05-08T01:42:52.554Z,8.85
2023-05-08T01:43:52.561Z,8.87
2023-05-08T01:44:52.569Z,8.85
2023-05-08T01:45:52.533Z,8.88
2023-05-08T01:46:52.552Z,8.88
2023-05-08T01:47:52.572Z,8.84
2023-05-08T01:48:52.506Z,8.87
2023-05-08T01:49:52.490Z,8.87
2023-05-08T01:50:52.522Z,8.85
2023-05-08T01:51:52.463Z,8.89
2023-05-08T01:52:52.446Z,8.89
2023-05-08T01:53:52.483Z,8.91
2023-05-08T01:54:52.424Z,8.89
2023-05-08T01:55:52.420Z,8.87
2023-05-08T01:56:52.523Z,8.89
2023-05-08T01:57:52.424Z,8.89
2023-05-08T01:58:52.401Z,8.89
2023-05-08T01:59:52.387Z,8.89
2023-05-08T02:00:52.377Z,8.89
2023-05-08T02:01:52.377Z,8.91
2023-05-08T02:02:52.650Z,8.91
2023-05-08T02:03:52.402Z,8.88
2023-05-08T02:04:52.321Z,8.91
2023-05-08T02:05:52.383Z,8.88
2023-05-08T02:06:52.296Z,8.88
2023-05-08T02:07:52.317Z,8.88
2023-05-08T02:08:52.295Z,8.88
2023-05-08T02:09:52.273Z,8.89
2023-05-08T02:10:52.253Z,8.88
2023-05-08T02:11:52.284Z,8.85
2023-05-08T02:12:52.274Z,8.84
2023-05-08T02:13:52.234Z,8.87
2023-05-08T02:14:52.213Z,8.84
2023-05-08T02:15:52.214Z,8.84
2023-05-08T02:16:52.260Z,8.79
2023-05-08T02:17:52.291Z,8.78
2023-05-08T02:18:52.210Z,8.79
2023-05-08T02:19:52.167Z,8.76
2023-05-08T02:20:52.144Z,8.74
2023-05-08T02:21:52.180Z,8.73
2023-05-08T02:22:52.124Z,8.73
2023-05-08T02:23:52.137Z,8.71
2023-05-08T02:24:52.115Z,8.67
2023-05-08T02:25:52.125Z,8.66
2023-05-08T02:26:52.115Z,8.66
2023-05-08T02:27:52.083Z,8.60
2023-05-08T02:28:52.067Z,8.61
2023-05-08T02:29:52.064Z,8.55
2023-05-08T02:30:52.080Z,8.55
2023-05-08T02:31:52.075Z,8.53
2023-05-08T02:32:52.055Z,8.53
2023-05-08T02:33:52.028Z,8.52
2023-05-08T02:35:02.352Z,8.51
2023-05-08T02:35:52.031Z,8.49
2023-05-08T02:36:52.002Z,8.49
2023-05-08T02:37:51.971Z,8.45
2023-05-08T02:38:51.958Z,8.45
2023-05-08T02:39:52.006Z,8.44
2023-05-08T02:40:51.960Z,8.41
2023-05-08T02:41:51.936Z,8.38
2023-05-08T02:42:51.929Z,8.42
2023-05-08T02:43:51.919Z,8.38
2023-05-08T02:44:51.924Z,8.36
2023-05-08T02:45:51.911Z,8.37
2023-05-08T02:46:51.890Z,8.37
2023-05-08T02:47:51.890Z,8.36
2023-05-08T02:48:51.876Z,8.36
2023-05-08T02:49:51.873Z,8.37
2023-05-08T02:50:51.828Z,8.37
2023-05-08T02:51:51.832Z,8.36
2023-05-08T02:52:51.818Z,8.37
2023-05-08T02:53:51.835Z,8.36
2023-05-08T02:54:51.849Z,8.38
2023-05-08T02:55:51.787Z,8.38
2023-05-08T02:56:51.715Z,8.38
2023-05-08T02:57:51.769Z,8.41
2023-05-08T02:58:51.778Z,8.42
2023-05-08T02:59:51.737Z,8.41
2023-05-08T03:00:51.724Z,8.37
2023-05-08T03:01:51.826Z,8.42
2023-05-08T03:02:51.769Z,8.41
2023-05-08T03:03:51.827Z,8.42
2023-05-08T03:04:51.695Z,8.44
2023-05-08T03:05:51.616Z,8.44
2023-05-08T03:06:51.604Z,8.42
2023-05-08T03:07:51.700Z,8.45
2023-05-08T03:08:51.655Z,8.45
2023-05-08T03:09:51.630Z,8.45
2023-05-08T03:10:51.619Z,8.48
2023-05-08T03:11:51.608Z,8.45
2023-05-08T03:12:51.635Z,8.48
2023-05-08T03:13:51.604Z,8.46
2023-05-08T03:14:51.570Z,8.46
2023-05-08T03:15:51.553Z,8.49
2023-05-08T03:16:51.518Z,8.49
2023-05-08T03:17:51.530Z,8.49
2023-05-08T03:18:51.528Z,8.49
2023-05-08T03:19:51.477Z,8.48
2023-05-08T03:20:51.466Z,8.49
2023-05-08T03:21:51.467Z,8.48
2023-05-08T03:22:51.466Z,8.49
2023-05-08T03:23:51.426Z,8.49
2023-05-08T03:24:51.437Z,8.48
2023-05-08T03:25:51.416Z,8.46
2023-05-08T03:26:51.407Z,8.44
2023-05-08T03:27:51.386Z,8.45
2023-05-08T03:28:51.397Z,8.44
2023-05-08T03:29:51.356Z,8.42
2023-05-08T03:30:51.356Z,8.42
2023-05-08T03:31:51.423Z,8.38
2023-05-08T03:32:51.389Z,8.41
2023-05-08T03:33:51.317Z,8.37
2023-05-08T03:34:51.321Z,8.38
2023-05-08T03:35:51.333Z,8.37
2023-05-08T03:36:51.289Z,8.33
2023-05-08T03:37:51.304Z,8.34
2023-05-08T03:38:51.260Z,8.34
2023-05-08T03:39:51.263Z,8.31
2023-05-08T03:40:51.273Z,8.31
2023-05-08T03:41:51.241Z,8.31
2023-05-08T03:42:51.224Z,8.31
2023-05-08T03:43:51.222Z,8.33
2023-05-08T03:44:51.200Z,8.30
2023-05-08T03:45:51.234Z,8.28
2023-05-08T03:46:51.281Z,8.27
2023-05-08T03:47:51.237Z,8.27
2023-05-08T03:48:51.155Z,8.27
2023-05-08T03:49:51.166Z,8.27
2023-05-08T03:50:51.140Z,8.26
2023-05-08T03:51:51.125Z,8.24
2023-05-08T03:52:51.122Z,8.20
2023-05-08T03:53:51.119Z,8.23
2023-05-08T03:54:51.105Z,8.23
2023-05-08T03:55:51.088Z,8.24
2023-05-08T03:56:51.157Z,8.20
2023-05-08T03:57:51.069Z,8.24
2023-05-08T03:58:51.061Z,8.24
2023-05-08T03:59:51.078Z,8.20
2023-05-08T04:00:51.032Z,8.19
2023-05-08T04:01:51.044Z,8.18
2023-05-08T04:02:51.135Z,8.19
2023-05-08T04:03:51.157Z,8.20
2023-05-08T04:04:51.086Z,8.23
2023-05-08T04:05:51.003Z,8.23
2023-05-08T04:06:51.359Z,8.24
2023-05-08T04:07:50.962Z,8.20
2023-05-08T04:08:50.987Z,8.20
2023-05-08T04:09:50.950Z,8.19
2023-05-08T04:10:50.934Z,8.19
2023-05-08T04:11:50.934Z,8.19
2023-05-08T04:12:50.982Z,8.19
2023-05-08T04:13:50.919Z,8.19
2023-05-08T04:14:50.900Z,8.18
2023-05-08T04:15:50.892Z,8.20
2023-05-08T04:16:50.897Z,8.19
2023-05-08T04:17:51.099Z,8.23
2023-05-08T04:18:50.872Z,8.23
2023-05-08T04:19:50.847Z,8.24
2023-05-08T04:20:50.835Z,8.24
2023-05-08T04:21:50.829Z,8.27
2023-05-08T04:22:50.831Z,8.27
2023-05-08T04:23:50.812Z,8.28
2023-05-08T04:24:50.794Z,8.28
2023-05-08T04:25:50.785Z,8.30
2023-05-08T04:26:50.809Z,8.30
2023-05-08T04:27:50.859Z,8.31
2023-05-08T04:28:50.844Z,8.31
2023-05-08T04:29:50.740Z,8.34
2023-05-08T04:30:50.781Z,8.34
2023-05-08T04:31:50.826Z,8.33
2023-05-08T04:32:50.793Z,8.36
2023-05-08T04:33:50.749Z,8.38
2023-05-08T04:34:51.465Z,8.37
2023-05-08T04:35:50.673Z,8.41
2023-05-08T04:36:50.678Z,8.42
2023-05-08T04:37:50.660Z,8.46
2023-05-08T04:38:50.640Z,8.48
2023-05-08T04:39:50.624Z,8.51
2023-05-08T04:40:50.619Z,8.55
2023-05-08T04:41:50.701Z,8.64
2023-05-08T04:42:50.600Z,8.69
2023-05-08T04:43:50.612Z,8.76
2023-05-08T04:44:50.584Z,8.82
2023-05-08T04:45:50.611Z,8.85
2023-05-08T04:46:50.564Z,8.85
2023-05-08T04:47:50.673Z,8.88
2023-05-08T04:48:50.561Z,8.91
2023-05-08T04:49:50.533Z,8.99
2023-05-08T04:50:50.532Z,9.11
2023-05-08T04:51:50.501Z,9.28
2023-05-08T04:52:50.499Z,9.44
2023-05-08T04:53:50.483Z,9.58
2023-05-08T04:54:50.475Z,9.64
2023-05-08T04:55:50.493Z,9.80
2023-05-08T04:56:50.483Z,9.91
2023-05-08T04:57:50.453Z,10.07
2023-05-08T04:58:50.446Z,10.23
2023-05-08T04:59:50.533Z,10.34
2023-05-08T05:00:50.518Z,10.48
2023-05-08T05:01:50.474Z,10.61
2023-05-08T05:02:50.415Z,10.75
2023-05-08T05:03:50.427Z,10.79
2023-05-08T05:04:50.566Z,10.93
2023-05-08T05:05:51.079Z,10.99
2023-05-08T05:06:51.071Z,11.12
2023-05-08T05:07:50.361Z,11.15
2023-05-08T05:08:50.371Z,11.17
2023-05-08T05:09:50.344Z,11.30
2023-05-08T05:10:51.065Z,11.43
2023-05-08T05:11:50.305Z,11.59
2023-05-08T05:12:50.625Z,11.60
2023-05-08T05:13:50.292Z,11.60
2023-05-08T05:14:50.257Z,11.57
2023-05-08T05:15:50.299Z,11.45
2023-05-08T05:16:50.969Z,11.32
2023-05-08T05:17:50.268Z,11.17
2023-05-08T05:18:50.542Z,11.07
2023-05-08T05:19:51.612Z,11.07
2023-05-08T05:20:50.185Z,11.05
2023-05-08T05:21:50.241Z,11.08
2023-05-08T05:22:50.159Z,11.25
2023-05-08T05:23:50.217Z,11.32
2023-05-08T05:24:50.150Z,11.66
2023-05-08T05:25:50.151Z,11.94
2023-05-08T05:26:50.153Z,12.25
2023-05-08T05:27:50.126Z,12.54
2023-05-08T05:28:50.120Z,12.76
2023-05-08T05:29:50.103Z,13.03
2023-05-08T05:30:50.096Z,13.23
2023-05-08T05:31:50.113Z,13.56
2023-05-08T05:32:50.160Z,13.83
2023-05-08T05:33:50.054Z,14.07
2023-05-08T05:34:50.032Z,14.07
2023-05-08T05:35:50.093Z,14.11
2023-05-08T05:36:50.007Z,14.28
2023-05-08T05:37:50.046Z,14.32
2023-05-08T05:38:50.015Z,14.08
2023-05-08T05:39:50.003Z,13.89
2023-05-08T05:40:49.983Z,14.18
2023-05-08T05:41:50.012Z,14.50
2023-05-08T05:42:49.999Z,13.95
2023-05-08T05:43:49.970Z,13.60
2023-05-08T05:44:49.943Z,13.60
2023-05-08T05:45:49.931Z,13.50
2023-05-08T05:46:50.482Z,13.22
2023-05-08T05:47:50.435Z,12.91
2023-05-08T05:48:49.905Z,13.04
2023-05-08T05:49:49.882Z,13.52
2023-05-08T05:50:49.896Z,13.38
2023-05-08T05:51:49.870Z,13.42
2023-05-08T05:52:49.853Z,13.74
2023-05-08T05:53:49.844Z,14.07
2023-05-08T05:54:49.822Z,14.22
2023-05-08T05:55:49.870Z,14.17
2023-05-08T05:56:49.854Z,13.95
2023-05-08T05:57:49.787Z,13.52
2023-05-08T05:58:50.506Z,13.52
2023-05-08T05:59:49.799Z,13.23
2023-05-08T06:00:49.801Z,13.23
2023-05-08T06:01:49.842Z,13.19
2023-05-08T06:02:49.902Z,13.11
2023-05-08T06:03:49.814Z,13.00
2023-05-08T06:04:49.738Z,12.91
2023-05-08T06:05:49.739Z,12.83
2023-05-08T06:06:49.706Z,12.80
2023-05-08T06:07:49.689Z,12.82
2023-05-08T06:08:49.681Z,12.83
2023-05-08T06:09:49.694Z,12.91
2023-05-08T06:10:49.687Z,13.03
2023-05-08T06:11:49.663Z,13.20
2023-05-08T06:12:56.572Z,13.35
2023-05-08T06:13:50.679Z,13.42
2023-05-08T06:14:49.642Z,13.11
2023-05-08T06:15:49.591Z,12.90
2023-05-08T06:16:49.629Z,12.79
2023-05-08T06:17:49.640Z,12.78
2023-05-08T06:18:49.601Z,12.75
2023-05-08T06:19:49.580Z,12.64
2023-05-08T06:20:49.574Z,12.53
2023-05-08T06:21:49.548Z,12.50
2023-05-08T06:22:49.534Z,12.43
2023-05-08T06:23:49.546Z,12.20
2023-05-08T06:24:49.615Z,12.20
2023-05-08T06:25:49.527Z,12.21
2023-05-08T06:26:49.513Z,12.22
2023-05-08T06:27:49.462Z,12.25
2023-05-08T06:28:49.487Z,12.28
2023-05-08T06:29:49.462Z,12.32
2023-05-08T06:30:49.574Z,12.36
2023-05-08T06:31:49.449Z,12.39
2023-05-08T06:32:49.537Z,12.39
2023-05-08T06:33:49.475Z,12.42
2023-05-08T06:34:49.397Z,12.42
2023-05-08T06:35:49.507Z,12.47
2023-05-08T06:36:49.422Z,12.58
2023-05-08T06:37:49.377Z,12.68
2023-05-08T06:38:49.352Z,12.80
2023-05-08T06:39:57.249Z,12.87
2023-05-08T06:40:49.350Z,12.76
2023-05-08T06:41:49.322Z,12.70
2023-05-08T06:42:49.347Z,12.85
2023-05-08T06:43:49.312Z,12.95
2023-05-08T06:44:49.293Z,13.19
2023-05-08T06:45:49.317Z,13.39
2023-05-08T06:46:49.349Z,13.38
2023-05-08T06:47:49.421Z,13.41
2023-05-08T06:48:49.279Z,13.65
2023-05-08T06:49:49.262Z,13.87
2023-05-08T06:50:49.229Z,14.12
2023-05-08T06:51:49.245Z,14.00
2023-05-08T06:52:49.226Z,14.12
2023-05-08T06:53:49.191Z,14.32
2023-05-08T06:54:49.213Z,14.54
2023-05-08T06:55:49.185Z,14.70
2023-05-08T06:56:49.186Z,14.73
2023-05-08T06:57:49.140Z,14.89
2023-05-08T06:58:57.169Z,14.97
2023-05-08T06:59:49.180Z,15.00
2023-05-08T07:00:49.149Z,15.00
2023-05-08T07:01:49.349Z,15.04
2023-05-08T07:02:49.324Z,15.09
2023-05-08T07:03:49.082Z,15.21
2023-05-08T07:04:49.241Z,15.09
2023-05-08T07:05:49.077Z,15.11
2023-05-08T07:06:49.084Z,14.84
2023-05-08T07:07:49.050Z,14.51
2023-05-08T07:08:49.056Z,14.11
2023-05-08T07:09:49.016Z,14.30
2023-05-08T07:10:49.028Z,14.25
2023-05-08T07:11:49.001Z,14.30
2023-05-08T07:12:49.039Z,14.18
2023-05-08T07:13:49.001Z,14.05
2023-05-08T07:14:49.000Z,13.85
2023-05-08T07:15:49.107Z,14.00
2023-05-08T07:16:48.965Z,14.23
2023-05-08T07:17:49.050Z,14.41
2023-05-08T07:18:48.928Z,14.63
2023-05-08T07:19:48.933Z,14.92
2023-05-08T07:20:48.905Z,15.24
2023-05-08T07:21:48.909Z,15.47
2023-05-08T07:22:48.944Z,15.77
2023-05-08T07:23:48.925Z,16.02
2023-05-08T07:24:48.884Z,15.79
2023-05-08T07:25:48.846Z,15.47
2023-05-08T07:26:48.846Z,15.49
2023-05-08T07:27:48.831Z,15.80
2023-05-08T07:28:48.841Z,16.51
2023-05-08T07:29:48.849Z,17.19
2023-05-08T07:30:48.798Z,17.68
2023-05-08T07:31:48.840Z,17.79
2023-05-08T07:32:48.809Z,18.22
2023-05-08T07:33:48.786Z,18.62
2023-05-08T07:34:48.803Z,18.43
2023-05-08T07:35:48.757Z,18.75
2023-05-08T07:36:48.755Z,19.00
2023-05-08T07:37:48.747Z,19.12
2023-05-08T07:38:48.778Z,18.89
2023-05-08T07:39:48.698Z,18.90
2023-05-08T07:40:49.515Z,18.52
2023-05-08T07:41:50.083Z,18.15
2023-05-08T07:42:49.380Z,18.60
2023-05-08T07:43:49.141Z,19.14
2023-05-08T07:44:54.810Z,19.70
2023-05-08T07:45:48.626Z,20.03
2023-05-08T07:46:48.726Z,20.21
2023-05-08T07:47:48.652Z,20.22
2023-05-08T07:48:49.511Z,20.10
2023-05-08T07:49:48.588Z,19.95
2023-05-08T07:50:48.575Z,20.77
2023-05-08T07:51:48.567Z,21.09
2023-05-08T07:52:50.128Z,20.63
2023-05-08T07:53:48.556Z,20.58
2023-05-08T07:54:48.550Z,19.99
2023-05-08T07:55:48.519Z,19.41
2023-05-08T07:56:48.665Z,18.95
2023-05-08T07:57:48.530Z,18.52
2023-05-08T07:58:48.499Z,18.43
2023-05-08T07:59:48.490Z,18.11
2023-05-08T08:00:48.468Z,17.92
2023-05-08T08:01:48.557Z,17.87
2023-05-08T08:02:48.651Z,17.65
2023-05-08T08:03:48.574Z,18.13
2023-05-08T08:04:48.442Z,18.19
2023-05-08T08:05:48.419Z,19.11
2023-05-08T08:06:48.431Z,19.86
2023-05-08T08:07:48.396Z,20.60
2023-05-08T08:08:48.389Z,20.56
2023-05-08T08:09:48.368Z,19.94
2023-05-08T08:10:48.378Z,19.55
2023-05-08T08:11:48.367Z,19.41
2023-05-08T08:12:48.383Z,19.07
2023-05-08T08:13:48.340Z,18.78
2023-05-08T08:14:48.330Z,18.55
2023-05-08T08:15:48.318Z,18.26
2023-05-08T08:16:48.360Z,18.11
2023-05-08T08:17:48.335Z,18.04
2023-05-08T08:18:48.278Z,17.86
2023-05-08T08:19:48.306Z,17.70
2023-05-08T08:20:48.271Z,17.56
2023-05-08T08:21:48.271Z,17.48
2023-05-08T08:22:48.254Z,17.38
2023-05-08T08:23:48.220Z,17.48
2023-05-08T08:24:48.240Z,17.85
2023-05-08T08:25:48.391Z,18.43
2023-05-08T08:26:48.197Z,18.93
2023-05-08T08:27:48.186Z,19.66
2023-05-08T08:28:48.180Z,20.31
2023-05-08T08:29:48.191Z,20.97
2023-05-08T08:30:48.202Z,21.51
2023-05-08T08:31:48.147Z,21.99
2023-05-08T08:32:48.157Z,22.50
2023-05-08T08:33:48.169Z,22.88
2023-05-08T08:34:48.150Z,23.43
2023-05-08T08:35:48.126Z,23.43
2023-05-08T08:36:48.082Z,23.37
2023-05-08T08:37:48.072Z,23.00
2023-05-08T08:38:48.100Z,21.89
2023-05-08T08:39:48.049Z,21.57
2023-05-08T08:40:48.042Z,20.93
2023-05-08T08:41:48.034Z,20.25
2023-05-08T08:42:48.023Z,19.71
2023-05-08T08:43:48.052Z,19.45
2023-05-08T08:44:48.009Z,19.26
2023-05-08T08:45:48.022Z,18.99
2023-05-08T08:46:48.060Z,18.78
2023-05-08T08:47:48.118Z,18.70
2023-05-08T08:48:47.975Z,18.55
2023-05-08T08:49:47.943Z,18.35
2023-05-08T08:50:47.963Z,18.28
2023-05-08T08:51:47.929Z,18.10
2023-05-08T08:52:47.983Z,18.11
2023-05-08T08:53:47.932Z,18.16
2023-05-08T08:54:47.915Z,18.13
2023-05-08T08:55:48.164Z,18.01
2023-05-08T08:56:47.945Z,17.97
2023-05-08T08:57:47.886Z,17.90
2023-05-08T08:58:47.887Z,17.87
2023-05-08T08:59:47.859Z,17.79
2023-05-08T09:00:47.895Z,17.72
2023-05-08T09:01:47.922Z,17.68
2023-05-08T09:02:47.935Z,17.63
2023-05-08T09:03:49.772Z,17.51
2023-05-08T09:04:47.798Z,17.42
2023-05-08T09:05:47.780Z,17.41
2023-05-08T09:06:47.791Z,17.15
2023-05-08T09:07:47.747Z,17.05
2023-05-08T09:08:47.758Z,17.15
2023-05-08T09:09:47.734Z,17.31
2023-05-08T09:10:47.745Z,17.44
2023-05-08T09:11:47.738Z,17.63
2023-05-08T09:12:47.729Z,18.00
2023-05-08T09:13:47.685Z,18.56
2023-05-08T09:14:47.868Z,19.09
2023-05-08T09:15:47.703Z,19.36
2023-05-08T09:16:47.818Z,19.70
2023-05-08T09:17:47.733Z,19.63
2023-05-08T09:18:47.637Z,19.27
2023-05-08T09:19:47.627Z,19.27
2023-05-08T09:20:47.661Z,19.59
2023-05-08T09:21:47.602Z,19.96
2023-05-08T09:22:47.588Z,20.48
2023-05-08T09:23:47.598Z,20.99
2023-05-08T09:24:47.600Z,21.27
2023-05-08T09:25:47.574Z,21.33
2023-05-08T09:26:47.578Z,21.98
2023-05-08T09:27:47.632Z,22.38
2023-05-08T09:28:47.591Z,22.17
2023-05-08T09:29:47.528Z,22.66
2023-05-08T09:30:47.533Z,22.91
2023-05-08T09:31:47.731Z,22.88
2023-05-08T09:32:47.525Z,23.00
2023-05-08T09:33:47.462Z,23.81
2023-05-08T09:34:47.783Z,23.91
2023-05-08T09:35:47.453Z,23.73
2023-05-08T09:36:47.457Z,24.30
2023-05-08T09:37:47.558Z,24.80
2023-05-08T09:38:47.425Z,25.22
2023-05-08T09:39:47.456Z,25.14
2023-05-08T09:40:47.426Z,25.41
2023-05-08T09:41:47.384Z,26.05
2023-05-08T09:42:47.379Z,26.18
2023-05-08T09:43:47.377Z,26.13
2023-05-08T09:44:47.373Z,26.19
2023-05-08T09:45:47.374Z,25.88
2023-05-08T09:46:47.390Z,26.03
2023-05-08T09:47:47.342Z,26.06
2023-05-08T09:48:47.356Z,26.21
2023-05-08T09:49:47.302Z,26.22
2023-05-08T09:50:47.324Z,26.56
2023-05-08T09:51:47.315Z,26.83
2023-05-08T09:52:47.284Z,26.89
2023-05-08T09:53:47.289Z,26.58
2023-05-08T09:54:47.374Z,27.20
2023-05-08T09:55:47.273Z,27.70
2023-05-08T09:56:47.242Z,28.00
2023-05-08T09:57:47.279Z,28.64
2023-05-08T09:58:47.272Z,28.82
2023-05-08T09:59:47.212Z,28.04
2023-05-08T10:00:47.228Z,28.04
2023-05-08T10:01:47.194Z,28.05
2023-05-08T10:02:47.212Z,26.81
2023-05-08T10:03:47.244Z,26.16
2023-05-08T10:04:47.224Z,25.73
2023-05-08T10:05:47.143Z,26.23
2023-05-08T10:06:47.135Z,26.88
2023-05-08T10:07:47.137Z,27.51
2023-05-08T10:08:47.188Z,28.01
2023-05-08T10:09:50.706Z,28.07
2023-05-08T10:10:47.467Z,27.80
2023-05-08T10:11:47.113Z,27.85
2023-05-08T10:12:47.077Z,27.92
2023-05-08T10:13:47.067Z,27.85
2023-05-08T10:14:47.161Z,27.11
2023-05-08T10:15:47.042Z,26.59
2023-05-08T10:16:47.165Z,26.15
2023-05-08T10:17:47.073Z,25.41
2023-05-08T10:18:47.046Z,25.41
2023-05-08T10:19:47.006Z,25.66
2023-05-08T10:20:46.992Z,26.62
2023-05-08T10:21:47.002Z,26.97
2023-05-08T10:22:46.971Z,26.80
2023-05-08T10:23:46.981Z,25.78
2023-05-08T10:24:46.954Z,24.30
2023-05-08T10:25:46.987Z,24.18
2023-05-08T10:27:02.734Z,24.77
2023-05-08T10:27:46.914Z,25.48
2023-05-08T10:28:46.896Z,25.08
2023-05-08T10:29:46.917Z,25.26
2023-05-08T10:30:46.937Z,24.28
2023-05-08T10:31:46.890Z,23.83
2023-05-08T10:32:46.929Z,23.69
2023-05-08T10:33:47.090Z,24.30
2023-05-08T10:34:46.846Z,24.38
2023-05-08T10:35:46.856Z,24.29
2023-05-08T10:36:46.848Z,24.14
2023-05-08T10:37:46.818Z,24.33
2023-05-08T10:38:46.798Z,25.32
2023-05-08T10:39:46.855Z,25.65
2023-05-08T10:40:46.834Z,24.86
2023-05-08T10:41:46.784Z,23.76
2023-05-08T10:42:46.762Z,23.68
2023-05-08T10:43:46.768Z,23.62
2023-05-08T10:44:46.983Z,23.63
2023-05-08T10:45:46.749Z,23.73
2023-05-08T10:46:46.749Z,24.29
2023-05-08T10:47:48.619Z,23.84
2023-05-08T10:48:46.722Z,23.25
2023-05-08T10:49:46.704Z,23.41
2023-05-08T10:50:46.769Z,23.13
2023-05-08T10:51:46.686Z,22.66
2023-05-08T10:52:47.598Z,23.05
2023-05-08T10:53:46.739Z,23.44
2023-05-08T10:54:46.698Z,23.65
2023-05-08T10:55:46.713Z,23.55
2023-05-08T10:56:46.617Z,23.46
2023-05-08T10:57:46.620Z,23.80
2023-05-08T10:58:46.647Z,23.73
2023-05-08T10:59:46.704Z,23.00
2023-05-08T11:00:46.625Z,22.69
2023-05-08T11:01:46.596Z,22.47
2023-05-08T11:02:46.703Z,22.47
2023-05-08T11:03:46.662Z,23.06
2023-05-08T11:04:46.651Z,24.28
2023-05-08T11:05:46.540Z,24.61
2023-05-08T11:06:46.553Z,25.04
2023-05-08T11:07:47.104Z,25.32
2023-05-08T11:08:46.483Z,25.04
2023-05-08T11:09:46.466Z,25.10
2023-05-08T11:10:46.489Z,24.88
2023-05-08T11:11:46.446Z,25.41
2023-05-08T11:12:46.514Z,25.90
2023-05-08T11:13:46.451Z,26.00
2023-05-08T11:14:46.425Z,26.70
2023-05-08T11:15:46.442Z,26.89
2023-05-08T11:16:46.467Z,27.33
2023-05-08T11:17:46.582Z,28.05
2023-05-08T11:18:49.760Z,28.59
2023-05-08T11:19:46.375Z,27.85
2023-05-08T11:20:46.388Z,28.05
2023-05-08T11:21:46.400Z,28.33
2023-05-08T11:22:46.325Z,28.47
2023-05-08T11:23:46.326Z,28.22
2023-05-08T11:24:46.339Z,28.30
2023-05-08T11:25:46.310Z,28.22
2023-05-08T11:26:46.368Z,28.88
2023-05-08T11:27:46.285Z,28.56
2023-05-08T11:28:46.270Z,28.01
2023-05-08T11:29:46.254Z,28.08
2023-05-08T11:30:46.262Z,27.65
2023-05-08T11:31:47.345Z,27.74
2023-05-08T11:32:46.259Z,27.65
2023-05-08T11:33:46.231Z,27.65
2023-05-08T11:34:46.219Z,27.26
2023-05-08T11:35:46.246Z,26.96
2023-05-08T11:36:46.189Z,27.26
2023-05-08T11:37:46.173Z,27.74
2023-05-08T11:38:46.204Z,27.86
2023-05-08T11:39:46.148Z,27.39
2023-05-08T11:40:46.298Z,27.86
2023-05-08T11:41:46.132Z,27.36
2023-05-08T11:42:47.100Z,26.92
2023-05-08T11:43:46.115Z,26.96
2023-05-08T11:44:46.222Z,26.70
2023-05-08T11:45:46.102Z,26.95
2023-05-08T11:46:46.116Z,27.22
2023-05-08T11:47:46.170Z,27.87
2023-05-08T11:48:46.046Z,27.80
2023-05-08T11:49:46.061Z,27.39
2023-05-08T11:50:46.089Z,26.81
2023-05-08T11:51:46.030Z,26.77
2023-05-08T11:52:46.008Z,27.11
2023-05-08T11:53:46.081Z,27.25
2023-05-08T11:54:46.079Z,26.23
2023-05-08T11:55:45.988Z,25.58
2023-05-08T11:56:47.734Z,24.92
2023-05-08T11:57:45.978Z,24.51
2023-05-08T11:58:45.964Z,24.88
2023-05-08T11:59:45.991Z,25.85
2023-05-08T12:00:45.970Z,25.62
2023-05-08T12:01:53.638Z,25.91
2023-05-08T12:02:46.047Z,26.33
2023-05-08T12:03:46.021Z,26.37
2023-05-08T12:04:45.940Z,26.38
2023-05-08T12:05:45.918Z,26.06
2023-05-08T12:06:45.878Z,26.47
2023-05-08T12:07:45.879Z,26.71
2023-05-08T12:08:45.873Z,27.26
2023-05-08T12:09:45.852Z,27.86
2023-05-08T12:10:46.805Z,28.11
2023-05-08T12:11:45.845Z,27.39
2023-05-08T12:12:46.166Z,27.74
2023-05-08T12:13:45.888Z,28.01
2023-05-08T12:14:45.812Z,28.26
2023-05-08T12:15:45.783Z,28.07
2023-05-08T12:16:45.830Z,27.90
2023-05-08T12:17:45.848Z,27.86
2023-05-08T12:18:45.786Z,26.73
2023-05-08T12:19:45.741Z,26.65
2023-05-08T12:20:45.733Z,26.92
2023-05-08T12:21:45.711Z,27.07
2023-05-08T12:22:45.709Z,26.13
2023-05-08T12:23:45.738Z,26.09
2023-05-08T12:24:45.683Z,25.53
2023-05-08T12:25:45.701Z,26.09
2023-05-08T12:26:45.692Z,26.38
2023-05-08T12:27:45.813Z,26.80
2023-05-08T12:28:45.691Z,26.59
2023-05-08T12:29:45.691Z,26.22
2023-05-08T12:30:45.644Z,26.55
2023-05-08T12:31:45.747Z,26.75
2023-05-08T12:32:45.656Z,26.99
2023-05-08T12:33:45.698Z,26.44
2023-05-08T12:34:45.580Z,26.65
2023-05-08T12:35:45.624Z,26.85
2023-05-08T12:36:45.615Z,27.08
2023-05-08T12:37:45.617Z,27.20
2023-05-08T12:38:45.526Z,26.18
2023-05-08T12:39:45.700Z,26.37
2023-05-08T12:40:46.129Z,26.56
2023-05-08T12:41:45.588Z,26.18
2023-05-08T12:42:45.601Z,26.02
2023-05-08T12:43:45.484Z,25.75
2023-05-08T12:44:45.479Z,25.38
2023-05-08T12:45:45.526Z,25.77
2023-05-08T12:46:45.500Z,26.18
2023-05-08T12:47:45.479Z,26.53
2023-05-08T12:48:45.434Z,26.89
2023-05-08T12:49:45.444Z,26.73
2023-05-08T12:50:45.424Z,26.34
2023-05-08T12:51:45.403Z,26.41
2023-05-08T12:52:45.414Z,26.41
2023-05-08T12:53:45.372Z,26.70
2023-05-08T12:54:45.376Z,26.40
2023-05-08T12:55:45.409Z,26.31
2023-05-08T12:56:45.384Z,26.07
2023-05-08T12:57:45.336Z,26.40
2023-05-08T12:58:45.380Z,26.77
2023-05-08T12:59:45.334Z,26.81
2023-05-08T13:00:45.312Z,27.07
2023-05-08T13:01:45.331Z,27.27
2023-05-08T13:02:49.557Z,27.49